createdAt,value
2023-03-17T00:04:48.147Z,92.88
2023-03-17T00:09:54.147Z,82.60
2023-03-17T00:14:58.756Z,77.90
2023-03-17T00:20:03.717Z,83.80
2023-03-17T00:25:20.431Z,86.57
2023-03-17T00:30:25.440Z,79.00
2023-03-17T00:35:31.178Z,74.72
2023-03-17T00:40:36.983Z,88.80
2023-03-17T00:45:42.749Z,82.78
2023-03-17T00:50:47.775Z,82.85
2023-03-17T00:55:54.609Z,94.15
2023-03-17T01:00:59.872Z,76.88
2023-03-17T01:06:07.839Z,77.32
2023-03-17T01:16:24.688Z,84.07
2023-03-17T01:21:29.673Z,89.80
2023-03-17T01:26:35.610Z,105.40
2023-03-17T01:31:39.838Z,109.18
2023-03-17T01:36:44.226Z,126.78
2023-03-17T01:41:50.057Z,124.60
2023-03-17T01:46:55.060Z,114.40
2023-03-17T01:52:05.477Z,111.28
2023-03-17T01:57:16.298Z,115.70
2023-03-17T02:02:26.092Z,122.93
2023-03-17T02:07:30.522Z,133.32
2023-03-17T02:12:37.445Z,136.23
2023-03-17T02:17:41.694Z,140.15
2023-03-17T02:22:52.715Z,163.25
2023-03-17T02:28:00.833Z,133.20
2023-03-17T02:33:06.238Z,149.20
2023-03-17T02:38:12.166Z,122.22
2023-03-17T02:43:16.929Z,113.32
2023-03-17T02:48:23.050Z,128.30
2023-03-17T02:53:28.723Z,98.32
2023-03-17T02:58:33.096Z,96.22
2023-03-17T03:03:37.887Z,100.72
2023-03-17T03:08:43.735Z,96.10
2023-03-17T03:13:48.101Z,87.72
2023-03-17T03:18:52.340Z,81.13
2023-03-17T03:23:58.402Z,89.25
2023-03-17T03:29:02.674Z,90.03
2023-03-17T03:34:07.025Z,89.78
2023-03-17T03:39:14.429Z,82.80
2023-03-17T03:44:18.767Z,87.85
2023-03-17T03:49:23.165Z,88.50
2023-03-17T03:54:29.096Z,80.15
2023-03-17T03:59:33.255Z,83.15
2023-03-17T04:04:37.998Z,76.03
2023-03-17T04:09:43.856Z,77.68
2023-03-17T04:14:48.050Z,83.15
2023-03-17T04:19:52.524Z,72.43
2023-03-17T04:24:58.351Z,80.32
2023-03-17T04:30:02.814Z,79.95
2023-03-17T04:35:09.393Z,83.88
2023-03-17T04:40:17.231Z,77.95
2023-03-17T04:45:21.772Z,73.82
2023-03-17T04:50:25.870Z,69.10
2023-03-17T04:55:31.803Z,69.32
2023-03-17T05:00:39.026Z,69.47
2023-03-17T05:05:43.802Z,69.65
2023-03-17T05:10:49.925Z,75.53
2023-03-17T05:15:55.854Z,96.65
2023-03-17T05:21:00.251Z,60.60
2023-03-17T05:26:06.663Z,55.72
2023-03-17T05:31:11.952Z,71.90
2023-03-17T05:36:16.614Z,64.53
2023-03-17T05:41:22.277Z,58.05
2023-03-17T05:46:26.948Z,71.80
2023-03-17T05:51:31.771Z,59.78
2023-03-17T05:56:37.741Z,59.85
2023-03-17T06:01:42.130Z,59.53
2023-03-17T06:06:46.610Z,57.58
2023-03-17T06:11:52.651Z,222.63
2023-03-17T06:16:57.081Z,55.53
2023-03-17T06:22:01.686Z,49.88
2023-03-17T06:27:08.088Z,50.53
2023-03-17T06:32:20.313Z,104.13
2023-03-17T06:37:25.384Z,97.07
2023-03-17T06:42:31.736Z,101.50
2023-03-17T06:47:37.479Z,59.85
2023-03-17T06:52:42.386Z,43.72
2023-03-17T06:57:50.888Z,66.30
2023-03-17T07:02:55.480Z,337.50
2023-03-17T07:08:00.532Z,41.35
2023-03-17T07:13:08.020Z,36.47
2023-03-17T07:18:12.410Z,38.25
2023-03-17T07:23:20.350Z,28.95
2023-03-17T07:28:26.340Z,37.20
2023-03-17T07:33:31.249Z,28.98
2023-03-17T07:38:36.478Z,28.67
2023-03-17T07:43:42.611Z,30.83
2023-03-17T07:48:47.127Z,25.90
2023-03-17T07:53:52.149Z,33.45
2023-03-17T07:58:59.237Z,28.33
2023-03-17T08:04:03.666Z,24.27
2023-03-17T08:09:09.051Z,27.13
2023-03-17T08:14:15.028Z,55.08
2023-03-17T08:19:19.378Z,26.50
2023-03-17T08:24:23.758Z,12.70
2023-03-17T08:29:30.382Z,15.35
2023-03-17T08:34:35.064Z,15.48
2023-03-17T08:39:39.663Z,11.70
2023-03-17T08:44:45.499Z,14.68
2023-03-17T08:49:49.850Z,11.00
2023-03-17T08:54:58.450Z,13.57
2023-03-17T09:00:11.139Z,8.27
2023-03-17T09:05:18.738Z,8.40
2023-03-17T09:10:23.776Z,10.27
2023-03-17T09:15:29.946Z,7.85
2023-03-17T09:20:35.081Z,13.07
2023-03-17T09:25:41.597Z,14.30
2023-03-17T09:30:47.861Z,11.40
2023-03-17T09:35:53.225Z,18.98
2023-03-17T09:41:07.716Z,13.43
2023-03-17T09:46:38.870Z,9.63
2023-03-17T09:51:46.583Z,8.73
2023-03-17T09:57:01.869Z,8.77
2023-03-17T10:02:19.938Z,12.10
2023-03-17T10:07:29.936Z,10.02
2023-03-17T10:12:45.586Z,12.15
2023-03-17T10:17:53.614Z,9.88
2023-03-17T10:22:59.587Z,10.13
2023-03-17T10:28:09.186Z,15.63
2023-03-17T10:33:15.240Z,9.45
2023-03-17T10:38:21.851Z,11.20
2023-03-17T10:43:31.585Z,22.52
2023-03-17T10:48:40.187Z,10.93
2023-03-17T10:53:44.404Z,21.08
2023-03-17T10:58:51.120Z,10.02
2023-03-17T11:03:57.850Z,12.98
2023-03-17T11:09:09.603Z,14.43
2023-03-17T11:14:15.711Z,11.52
2023-03-17T11:19:23.392Z,14.43
2023-03-17T11:24:33.525Z,19.42
2023-03-17T11:30:03.694Z,8.35
2023-03-17T11:35:23.406Z,9.07
2023-03-17T11:40:34.061Z,8.70
2023-03-17T11:45:46.618Z,11.07
2023-03-17T11:50:59.879Z,11.15
2023-03-17T11:56:10.956Z,10.00
2023-03-17T12:01:19.520Z,8.23
2023-03-17T12:06:31.996Z,11.98
2023-03-17T12:11:41.358Z,12.82
2023-03-17T12:16:49.688Z,8.17
2023-03-17T12:22:00.568Z,7.88
2023-03-17T12:27:10.618Z,7.90
2023-03-17T12:37:30.428Z,12.98
2023-03-17T12:42:48.377Z,10.73
2023-03-17T12:48:08.314Z,9.85
2023-03-17T12:58:39.265Z,15.45
2023-03-17T13:03:57.736Z,9.43
2023-03-17T13:09:34.918Z,9.73
2023-03-17T13:14:44.532Z,9.85
2023-03-17T13:19:57.853Z,12.18
2023-03-17T13:25:27.638Z,8.85
2023-03-17T13:31:01.206Z,17.27
2023-03-17T13:36:27.977Z,31.73
2023-03-17T13:41:57.688Z,33.25
2023-03-17T13:47:27.368Z,9.23
2023-03-17T13:52:35.073Z,44.97
2023-03-17T13:57:41.236Z,11.43
2023-03-17T14:02:46.258Z,12.98
2023-03-17T14:07:56.309Z,12.18
2023-03-17T14:13:13.555Z,16.92
2023-03-17T14:18:31.469Z,8.65
2023-03-17T14:23:36.137Z,15.30
2023-03-17T14:28:42.490Z,9.82
2023-03-17T14:33:46.948Z,18.48
2023-03-17T14:38:52.654Z,11.82
2023-03-17T14:44:08.578Z,15.13
2023-03-17T14:49:22.126Z,10.52
2023-03-17T14:54:30.111Z,6.00
2023-03-17T14:59:38.173Z,8.38
2023-03-17T15:04:53.084Z,112.28
2023-03-17T15:10:01.918Z,8.20
2023-03-17T15:15:21.649Z,11.90
2023-03-17T15:20:26.756Z,23.45
2023-03-17T15:25:38.325Z,9.63
2023-03-17T15:30:47.926Z,7.35
2023-03-17T15:40:57.388Z,5.97
2023-03-17T15:46:05.323Z,6.43
2023-03-17T15:51:12.512Z,8.65
2023-03-17T15:56:19.193Z,6.97
2023-03-17T16:01:27.770Z,8.65
2023-03-17T16:06:32.392Z,12.80
2023-03-17T16:11:37.884Z,7.68
2023-03-17T16:16:45.996Z,10.02
2023-03-17T16:21:50.757Z,14.52
2023-03-17T16:26:55.266Z,13.57
2023-03-17T16:32:01.096Z,13.50
2023-03-17T16:37:05.922Z,12.02
2023-03-17T16:42:22.347Z,12.48
2023-03-17T16:47:28.139Z,9.52
2023-03-17T16:52:32.275Z,10.05
2023-03-17T16:57:36.806Z,32.50
2023-03-17T17:02:43.175Z,67.70
2023-03-17T17:07:48.123Z,32.28
2023-03-17T17:12:53.767Z,16.58
2023-03-17T17:18:02.820Z,56.90
2023-03-17T17:23:11.658Z,37.23
2023-03-17T17:28:19.567Z,19.98
2023-03-17T17:33:26.130Z,25.80
2023-03-17T17:38:30.747Z,21.23
2023-03-17T17:43:35.109Z,21.80
2023-03-17T17:48:41.409Z,20.85
2023-03-17T17:53:49.182Z,15.27
2023-03-17T17:58:54.098Z,18.73
2023-03-17T18:04:00.015Z,25.90
2023-03-17T18:09:05.553Z,25.63
2023-03-17T18:14:11.587Z,74.22
2023-03-17T18:19:17.865Z,47.97
2023-03-17T18:24:22.289Z,24.77
2023-03-17T18:29:28.061Z,24.25
2023-03-17T18:34:36.676Z,26.05
2023-03-17T18:39:41.369Z,104.80
2023-03-17T18:44:46.137Z,72.05
2023-03-17T18:49:52.005Z,30.73
2023-03-17T18:54:56.408Z,37.63
2023-03-17T19:00:00.975Z,110.43
2023-03-17T19:05:07.810Z,68.30
2023-03-17T19:10:14.168Z,53.38
2023-03-17T19:15:18.639Z,36.70
2023-03-17T19:20:24.261Z,20.02
2023-03-17T19:25:28.752Z,32.72
2023-03-17T19:30:33.516Z,34.35
2023-03-17T19:35:40.020Z,62.38
2023-03-17T19:40:44.470Z,26.92
2023-03-17T19:45:48.913Z,35.53
2023-03-17T19:50:54.875Z,145.40
2023-03-17T19:55:59.077Z,78.47
2023-03-17T20:01:04.333Z,33.25
2023-03-17T20:06:10.150Z,25.65
2023-03-17T20:11:14.713Z,34.83
2023-03-17T20:16:19.025Z,22.90
2023-03-17T20:21:24.930Z,26.38
2023-03-17T20:26:29.347Z,23.67
2023-03-17T20:31:34.055Z,39.00
2023-03-17T20:36:42.597Z,24.85
2023-03-17T20:41:48.173Z,43.37
2023-03-17T20:46:53.225Z,34.80
2023-03-17T20:51:58.964Z,28.02
2023-03-17T20:57:03.330Z,55.50
2023-03-17T21:02:08.141Z,27.77
2023-03-17T21:07:14.772Z,30.17
2023-03-17T21:12:21.183Z,31.52
2023-03-17T21:17:26.640Z,23.75
2023-03-17T21:22:32.512Z,25.50
2023-03-17T21:27:37.860Z,33.83
2023-03-17T21:32:42.606Z,49.22
2023-03-17T21:37:48.658Z,61.58
2023-03-17T21:42:53.069Z,70.95
2023-03-17T21:47:57.620Z,55.72
2023-03-17T21:53:03.360Z,46.92
2023-03-17T21:58:08.450Z,29.40
2023-03-17T22:03:12.940Z,53.25
2023-03-17T22:08:18.631Z,32.58
2023-03-17T22:13:23.340Z,46.83
2023-03-17T22:18:27.682Z,37.03
2023-03-17T22:23:38.231Z,60.63
2023-03-17T22:28:43.290Z,37.55
2023-03-17T22:33:49.063Z,38.40
2023-03-17T22:38:56.322Z,40.40
2023-03-17T22:44:00.690Z,34.78
2023-03-17T22:49:05.685Z,57.50
2023-03-17T22:54:11.968Z,47.35
2023-03-17T22:59:16.396Z,35.92
2023-03-17T23:04:20.783Z,39.17
2023-03-17T23:09:26.803Z,143.15
2023-03-17T23:14:31.898Z,40.67
2023-03-17T23:19:36.433Z,53.20
2023-03-17T23:24:42.248Z,41.60
2023-03-17T23:29:46.728Z,50.47
2023-03-17T23:34:51.807Z,59.15
2023-03-17T23:39:57.502Z,54.58
2023-03-17T23:45:02.432Z,44.78
2023-03-17T23:50:07.976Z,43.25
2023-03-17T23:55:14.087Z,44.72
